Time;durP1;ratioP1;P1;durP2;ratioP2;P2;SDS_P1;SDS_P2;PMS_P1;PMS_P2;Temp;Humidity;BMP_temperature;BMP_pressure;BME280_temperature;BME280_humidity;BME280_pressure;Samples;Min_cycle;Max_cycle;Signal;HPM_P1;HPM_P2
2022/03/02 00:00:24;;;;;;;;;;;;;;;;;;2095894;28;19963;-47
2022/03/02 00:01:25;;;;;;;;;;;;;;;;;;2097971;28;19932;-47
2022/03/02 00:02:26;;;;;;;;;;;;;;;;;;2093119;28;20420;-49
2022/03/02 00:03:27;;;;;;;;;;;;;;;;;;2092384;28;19925;-47
2022/03/02 00:04:27;;;;;;;;;;;;;;;;;;2097929;28;19932;-47
2022/03/02 00:05:29;;;;;;;;;;;;;;;;;;2097545;28;19925;-46
2022/03/02 00:06:29;;;;;;;;;;;;;;;;;;2096033;28;19924;-47
2022/03/02 00:07:31;;;;;;;;;;;;;;;;;;2098367;28;19925;-43
2022/03/02 00:08:31;;;;;;;;;;;;;;;;;;2097082;28;20018;-42
2022/03/02 00:09:32;;;;;;;;;;;;;;;;;;2091514;28;19936;-42
2022/03/02 00:10:33;;;;;;;;;;;;;;;;;;2089662;28;20366;-43
2022/03/02 00:11:34;;;;;;;;;;;;;;;;;;2091454;28;20058;-42
2022/03/02 00:12:35;;;;;;;;;;;;;;;;;;2089887;28;19925;-42
2022/03/02 00:13:36;;;;;;;;;;;;;;;;;;2092370;28;20738;-42
2022/03/02 00:14:37;;;;;;;;;;;;;;;;;;2095591;28;20308;-42
2022/03/02 00:15:38;;;;;;;;;;;;;;;;;;2097929;28;19996;-42
2022/03/02 00:16:39;;;;;;;;;;;;;;;;;;2097799;28;19925;-42
2022/03/02 00:17:40;;;;;;;;;;;;;;;;;;2093188;28;20408;-42
2022/03/02 00:18:41;;;;;;;;;;;;;;;;;;2093967;28;19985;-47
2022/03/02 00:19:43;;;;;;;;;;;;;;;;;;2096558;28;19963;-47
2022/03/02 00:20:44;;;;;;;;;;;;;;;;;;2095266;28;19925;-48
2022/03/02 00:21:45;;;;;;;;;;;;;;;;;;2091301;28;20026;-46
2022/03/02 00:22:45;;;;;;;;;;;;;;;;;;2089921;28;20290;-46
2022/03/02 00:23:47;;;;;;;;;;;;;;;;;;2096035;28;19925;-46
2022/03/02 00:24:50;;;;;;;;;;;;;;;;;;2098137;28;20074;-42
2022/03/02 00:25:51;;;;;;;;;;;;;;;;;;2096648;28;20059;-42
2022/03/02 00:26:52;;;;;;;;;;;;;;;;;;2089452;28;19978;-42
2022/03/02 00:27:54;;;;;;;;;;;;;;;;;;2089581;28;19928;-42
2022/03/02 00:28:55;;;;;;;;;;;;;;;;;;2094584;28;20011;-42
2022/03/02 00:29:55;;;;;;;;;;;;;;;;;;2097758;28;19998;-41
2022/03/02 00:30:56;;;;;;;;;;;;;;;;;;2096600;28;19972;-41
2022/03/02 00:31:57;;;;;;;;;;;;;;;;;;2096015;28;19924;-42
2022/03/02 00:32:59;;;;;;;;;;;;;;;;;;2097909;28;20336;-42
2022/03/02 00:34:00;;;;;;;;;;;;;;;;;;2095810;28;20361;-41
2022/03/02 00:35:00;;;;;;;;;;;;;;;;;;2095410;28;20384;-41
2022/03/02 00:36:01;;;;;;;;;;;;;;;;;;2097754;28;19967;-41
2022/03/02 00:37:02;;;;;;;;;;;;;;;;;;2095725;28;20026;-42
2022/03/02 00:38:04;;;;;;;;;;;;;;;;;;2093531;28;19950;-42
2022/03/02 00:39:05;;;;;;;;;;;;;;;;;;2093013;28;20423;-42
2022/03/02 00:40:06;;;;;;;;;;;;;;;;;;2093214;28;19942;-41
2022/03/02 00:41:07;;;;;;;;;;;;;;;;;;2097624;28;19932;-42
2022/03/02 00:42:08;;;;;;;;;;;;;;;;;;2097887;28;19931;-47
2022/03/02 00:43:10;;;;;;;;;;;;;;;;;;2093968;28;19977;-47
2022/03/02 00:44:13;;;;;;;;;;;;;;;;;;2097694;28;19931;-45
2022/03/02 00:45:14;;;;;;;;;;;;;;;;;;2095666;28;19925;-46
2022/03/02 00:46:15;;;;;;;;;;;;;;;;;;2096091;28;20012;-47
2022/03/02 00:47:16;;;;;;;;;;;;;;;;;;2097707;28;19931;-47
2022/03/02 00:48:18;;;;;;;;;;;;;;;;;;2095489;28;20285;-46
2022/03/02 00:49:19;;;;;;;;;;;;;;;;;;2096267;28;19924;-46
2022/03/02 00:50:19;;;;;;;;;;;;;;;;;;2097678;28;20029;-46
2022/03/02 00:51:20;;;;;;;;;;;;;;;;;;2094007;28;20274;-47
2022/03/02 00:52:21;;;;;;;;;;;;;;;;;;2097571;28;20341;-47
2022/03/02 00:53:22;;;;;;;;;;;;;;;;;;2097608;28;20034;-46
2022/03/02 00:54:23;;;;;;;;;;;;;;;;;;2094389;28;19952;-42
2022/03/02 00:55:25;;;;;;;;;;;;;;;;;;2090723;28;19932;-41
2022/03/02 00:56:26;;;;;;;;;;;;;;;;;;2091699;28;19928;-41
2022/03/02 00:57:27;;;;;;;;;;;;;;;;;;2094605;28;19925;-41
2022/03/02 00:58:28;;;;;;;;;;;;;;;;;;2097489;28;19933;-42
2022/03/02 00:59:30;;;;;;;;;;;;;;;;;;2096980;28;19929;-42
2022/03/02 01:00:31;;;;;;;;;;;;;;;;;;2095134;28;19924;-47
2022/03/02 01:01:32;;;;;;;;;;;;;;;;;;2093784;28;20115;-47
2022/03/02 01:02:33;;;;;;;;;;;;;;;;;;2091326;28;19932;-42
2022/03/02 01:03:34;;;;;;;;;;;;;;;;;;2096910;28;19975;-42
2022/03/02 01:04:35;;;;;;;;;;;;;;;;;;2097746;28;20281;-42
2022/03/02 01:05:36;;;;;;;;;;;;;;;;;;2095340;28;20102;-42
2022/03/02 01:06:37;;;;;;;;;;;;;;;;;;2097633;28;19932;-42
2022/03/02 01:07:38;;;;;;;;;;;;;;;;;;2097658;28;20364;-42
2022/03/02 01:08:39;;;;;;;;;;;;;;;;;;2093011;28;19924;-42
2022/03/02 01:09:40;;;;;;;;;;;;;;;;;;2097374;28;19931;-42
2022/03/02 01:10:40;;;;;;;;;;;;;;;;;;2094509;28;20368;-42
2022/03/02 01:11:41;;;;;;;;;;;;;;;;;;2095240;28;19924;-46
2022/03/02 01:12:42;;;;;;;;;;;;;;;;;;2097548;28;19925;-47
2022/03/02 01:13:43;;;;;;;;;;;;;;;;;;2097012;28;20298;-41
2022/03/02 01:14:44;;;;;;;;;;;;;;;;;;2096364;28;20496;-41
2022/03/02 01:15:45;;;;;;;;;;;;;;;;;;2097400;28;19932;-41
2022/03/02 01:16:46;;;;;;;;;;;;;;;;;;2095871;28;19974;-46
2022/03/02 01:17:47;;;;;;;;;;;;;;;;;;2096518;28;19950;-47
2022/03/02 01:18:49;;;;;;;;;;;;;;;;;;2088833;28;19932;-46
2022/03/02 01:19:50;;;;;;;;;;;;;;;;;;2093370;28;20404;-47
2022/03/02 01:20:51;;;;;;;;;;;;;;;;;;2093364;28;19935;-46
2022/03/02 01:21:52;;;;;;;;;;;;;;;;;;2089228;28;19978;-46
2022/03/02 01:22:53;;;;;;;;;;;;;;;;;;2093903;28;19924;-46
2022/03/02 01:23:56;;;;;;;;;;;;;;;;;;2097559;28;20012;-47
2022/03/02 01:24:57;;;;;;;;;;;;;;;;;;2096934;28;20361;-42
2022/03/02 01:25:58;;;;;;;;;;;;;;;;;;2094815;28;19967;-42
2022/03/02 01:27:01;;;;;;;;;;;;;;;;;;2092019;28;20024;-42
2022/03/02 01:28:02;;;;;;;;;;;;;;;;;;2092172;28;20327;-42
2022/03/02 01:29:03;;;;;;;;;;;;;;;;;;2096190;28;19959;-42
2022/03/02 01:30:03;;;;;;;;;;;;;;;;;;2097512;28;19924;-41
2022/03/02 01:31:04;;;;;;;;;;;;;;;;;;2095299;28;20366;-42
2022/03/02 01:32:05;;;;;;;;;;;;;;;;;;2097406;28;19931;-42
2022/03/02 01:33:06;;;;;;;;;;;;;;;;;;2097812;28;19929;-46
2022/03/02 01:34:07;;;;;;;;;;;;;;;;;;2095304;28;19924;-46
2022/03/02 01:35:11;;;;;;;;;;;;;;;;;;2102724;28;20070;-47
2022/03/02 01:36:12;;;;;;;;;;;;;;;;;;2103188;28;20010;-46
2022/03/02 01:37:13;;;;;;;;;;;;;;;;;;2095082;28;19933;-42
2022/03/02 01:38:15;;;;;;;;;;;;;;;;;;2097523;28;19932;-42
2022/03/02 01:39:16;;;;;;;;;;;;;;;;;;2094413;28;20327;-42
2022/03/02 01:40:18;;;;;;;;;;;;;;;;;;2095809;28;19924;-46
2022/03/02 01:41:20;;;;;;;;;;;;;;;;;;2095246;28;19967;-46
2022/03/02 01:42:22;;;;;;;;;;;;;;;;;;2092437;28;19925;-47
2022/03/02 01:43:27;;;;;;;;;;;;;;;;;;2098998;28;20016;-43
2022/03/02 01:44:28;;;;;;;;;;;;;;;;;;2093942;28;20426;-47
2022/03/02 01:45:29;;;;;;;;;;;;;;;;;;2094926;28;19925;-47
2022/03/02 01:46:30;;;;;;;;;;;;;;;;;;2098320;28;19939;-47
2022/03/02 01:47:31;;;;;;;;;;;;;;;;;;2098569;28;19970;-42
2022/03/02 01:48:33;;;;;;;;;;;;;;;;;;2097235;28;19924;-43
2022/03/02 01:49:33;;;;;;;;;;;;;;;;;;2098993;28;19963;-43
2022/03/02 01:50:35;;;;;;;;;;;;;;;;;;2098294;28;19928;-42
2022/03/02 01:51:35;;;;;;;;;;;;;;;;;;2096753;28;20376;-42
2022/03/02 01:52:36;;;;;;;;;;;;;;;;;;2098130;28;19962;-42
2022/03/02 01:53:37;;;;;;;;;;;;;;;;;;2097350;28;19931;-42
2022/03/02 01:54:38;;;;;;;;;;;;;;;;;;2090294;28;19925;-42
2022/03/02 01:55:39;;;;;;;;;;;;;;;;;;2090524;28;20350;-42
2022/03/02 01:56:40;;;;;;;;;;;;;;;;;;2092213;28;20023;-42
2022/03/02 01:57:41;;;;;;;;;;;;;;;;;;2098364;28;19932;-48
2022/03/02 01:58:43;;;;;;;;;;;;;;;;;;2095629;28;19924;-47
2022/03/02 01:59:43;;;;;;;;;;;;;;;;;;2097060;28;20378;-47
2022/03/02 02:00:44;;;;;;;;;;;;;;;;;;2098971;28;19976;-42
2022/03/02 02:01:45;;;;;;;;;;;;;;;;;;2098153;28;19932;-42
2022/03/02 02:02:46;;;;;;;;;;;;;;;;;;2097275;28;19928;-42
2022/03/02 02:03:47;;;;;;;;;;;;;;;;;;2098741;28;20033;-42
2022/03/02 02:04:48;;;;;;;;;;;;;;;;;;2098046;28;19935;-47
2022/03/02 02:05:49;;;;;;;;;;;;;;;;;;2097105;28;19928;-47
2022/03/02 02:06:50;;;;;;;;;;;;;;;;;;2098855;28;19925;-47
2022/03/02 02:07:51;;;;;;;;;;;;;;;;;;2097414;28;19972;-47
2022/03/02 02:08:52;;;;;;;;;;;;;;;;;;2095467;28;19924;-43
2022/03/02 02:09:53;;;;;;;;;;;;;;;;;;2098115;28;20338;-42
2022/03/02 02:10:55;;;;;;;;;;;;;;;;;;2095944;28;19935;-43
2022/03/02 02:11:56;;;;;;;;;;;;;;;;;;2098435;28;19928;-43
2022/03/02 02:12:57;;;;;;;;;;;;;;;;;;2098140;28;19925;-48
2022/03/02 02:13:58;;;;;;;;;;;;;;;;;;2097022;28;20332;-42
2022/03/02 02:14:59;;;;;;;;;;;;;;;;;;2098472;28;19924;-42
2022/03/02 02:16:00;;;;;;;;;;;;;;;;;;2097119;28;20437;-47
2022/03/02 02:17:01;;;;;;;;;;;;;;;;;;2096964;28;19932;-48
2022/03/02 02:18:02;;;;;;;;;;;;;;;;;;2098530;28;20218;-47
2022/03/02 02:19:04;;;;;;;;;;;;;;;;;;2094944;28;19925;-42
2022/03/02 02:20:06;;;;;;;;;;;;;;;;;;2098387;28;19932;-42
2022/03/02 02:21:08;;;;;;;;;;;;;;;;;;2098119;28;19933;-42
2022/03/02 02:22:09;;;;;;;;;;;;;;;;;;2093991;28;20093;-43
2022/03/02 02:23:10;;;;;;;;;;;;;;;;;;2098501;28;20269;-43
2022/03/02 02:24:11;;;;;;;;;;;;;;;;;;2097636;28;20378;-42
2022/03/02 02:25:13;;;;;;;;;;;;;;;;;;2097171;28;19929;-43
2022/03/02 02:26:21;;;;;;;;;;;;;;;;;;2096759;28;19929;-43
2022/03/02 02:27:22;;;;;;;;;;;;;;;;;;2093979;28;20407;-47
2022/03/02 02:28:24;;;;;;;;;;;;;;;;;;2098335;28;20020;-47
2022/03/02 02:29:25;;;;;;;;;;;;;;;;;;2098088;28;20019;-47
2022/03/02 02:30:26;;;;;;;;;;;;;;;;;;2095715;28;19925;-47
2022/03/02 02:31:27;;;;;;;;;;;;;;;;;;2095735;28;19935;-48
2022/03/02 02:32:29;;;;;;;;;;;;;;;;;;2095363;28;20301;-43
2022/03/02 02:33:30;;;;;;;;;;;;;;;;;;2096402;28;21595;-42
2022/03/02 02:34:30;;;;;;;;;;;;;;;;;;2098565;28;19932;-48
2022/03/02 02:35:31;;;;;;;;;;;;;;;;;;2095887;28;19974;-47
2022/03/02 02:36:32;;;;;;;;;;;;;;;;;;2095884;28;19932;-48
2022/03/02 02:37:33;;;;;;;;;;;;;;;;;;2098181;28;19924;-47
2022/03/02 02:38:35;;;;;;;;;;;;;;;;;;2097282;28;20333;-50
2022/03/02 02:39:36;;;;;;;;;;;;;;;;;;2097562;28;20293;-47
2022/03/02 02:40:37;;;;;;;;;;;;;;;;;;2097908;28;20408;-48
2022/03/02 02:41:38;;;;;;;;;;;;;;;;;;2096415;28;19950;-47
2022/03/02 02:42:44;;;;;;;;;;;;;;;;;;2089855;28;19925;-50
2022/03/02 02:43:45;;;;;;;;;;;;;;;;;;2090245;28;19974;-47
2022/03/02 02:44:46;;;;;;;;;;;;;;;;;;2095923;28;19952;-43
2022/03/02 02:45:47;;;;;;;;;;;;;;;;;;2098388;28;20435;-42
2022/03/02 02:46:48;;;;;;;;;;;;;;;;;;2096312;28;20289;-43
2022/03/02 02:47:49;;;;;;;;;;;;;;;;;;2096966;28;19924;-43
2022/03/02 02:48:50;;;;;;;;;;;;;;;;;;2098473;28;20451;-43
2022/03/02 02:49:51;;;;;;;;;;;;;;;;;;2097598;28;19986;-43
2022/03/02 02:50:52;;;;;;;;;;;;;;;;;;2092730;28;19924;-47
2022/03/02 02:51:53;;;;;;;;;;;;;;;;;;2099099;28;19925;-43
2022/03/02 02:52:54;;;;;;;;;;;;;;;;;;2093942;28;19925;-43
2022/03/02 02:53:55;;;;;;;;;;;;;;;;;;2097807;28;19925;-43
2022/03/02 02:54:56;;;;;;;;;;;;;;;;;;2098405;28;19935;-42
2022/03/02 02:55:57;;;;;;;;;;;;;;;;;;2096014;28;19928;-43
2022/03/02 02:56:58;;;;;;;;;;;;;;;;;;2094578;28;20365;-47
2022/03/02 02:57:59;;;;;;;;;;;;;;;;;;2098032;28;19947;-47
2022/03/02 02:59:00;;;;;;;;;;;;;;;;;;2096833;28;20086;-47
2022/03/02 03:00:01;;;;;;;;;;;;;;;;;;2098337;28;19925;-47
2022/03/02 03:01:02;;;;;;;;;;;;;;;;;;2096515;28;19932;-43
2022/03/02 03:02:03;;;;;;;;;;;;;;;;;;2095735;28;20285;-43
2022/03/02 03:03:04;;;;;;;;;;;;;;;;;;2098682;28;19939;-43
2022/03/02 03:04:06;;;;;;;;;;;;;;;;;;2094932;28;20289;-43
2022/03/02 03:05:07;;;;;;;;;;;;;;;;;;2098144;28;20016;-43
2022/03/02 03:06:08;;;;;;;;;;;;;;;;;;2096479;28;19928;-43
2022/03/02 03:07:09;;;;;;;;;;;;;;;;;;2092927;28;20358;-43
2022/03/02 03:08:11;;;;;;;;;;;;;;;;;;2097756;28;19971;-43
2022/03/02 03:09:12;;;;;;;;;;;;;;;;;;2094799;28;20022;-43
2022/03/02 03:10:13;;;;;;;;;;;;;;;;;;2094163;28;19928;-47
2022/03/02 03:11:14;;;;;;;;;;;;;;;;;;2095862;28;19970;-43
2022/03/02 03:12:15;;;;;;;;;;;;;;;;;;2089939;28;19932;-43
2022/03/02 03:13:16;;;;;;;;;;;;;;;;;;2096538;28;19946;-43
2022/03/02 03:14:17;;;;;;;;;;;;;;;;;;2098114;28;20042;-43
2022/03/02 03:15:18;;;;;;;;;;;;;;;;;;2097440;28;20015;-43
2022/03/02 03:16:19;;;;;;;;;;;;;;;;;;2096792;28;19964;-42
2022/03/02 03:17:20;;;;;;;;;;;;;;;;;;2098396;28;20335;-47
2022/03/02 03:18:21;;;;;;;;;;;;;;;;;;2095357;28;19924;-48
2022/03/02 03:19:22;;;;;;;;;;;;;;;;;;2098234;28;19946;-47
2022/03/02 03:20:24;;;;;;;;;;;;;;;;;;2098161;28;19931;-47
2022/03/02 03:21:25;;;;;;;;;;;;;;;;;;2096839;28;20221;-48
2022/03/02 03:22:26;;;;;;;;;;;;;;;;;;2098245;28;20488;-47
2022/03/02 03:23:28;;;;;;;;;;;;;;;;;;2098155;28;19940;-48
2022/03/02 03:24:29;;;;;;;;;;;;;;;;;;2096847;28;19925;-43
2022/03/02 03:25:30;;;;;;;;;;;;;;;;;;2098325;28;19924;-43
2022/03/02 03:26:31;;;;;;;;;;;;;;;;;;2096439;28;19925;-47
2022/03/02 03:27:32;;;;;;;;;;;;;;;;;;2096646;28;20463;-47
2022/03/02 03:28:33;;;;;;;;;;;;;;;;;;2095727;28;20369;-46
2022/03/02 03:29:34;;;;;;;;;;;;;;;;;;2091420;28;19956;-48
2022/03/02 03:30:35;;;;;;;;;;;;;;;;;;2096969;28;19925;-49
2022/03/02 03:31:36;;;;;;;;;;;;;;;;;;2098106;28;20300;-47
2022/03/02 03:32:37;;;;;;;;;;;;;;;;;;2093735;28;19936;-43
2022/03/02 03:33:38;;;;;;;;;;;;;;;;;;2090021;28;19954;-43
2022/03/02 03:34:39;;;;;;;;;;;;;;;;;;2091006;28;20405;-43
2022/03/02 03:35:40;;;;;;;;;;;;;;;;;;2095961;28;19928;-43
2022/03/02 03:36:41;;;;;;;;;;;;;;;;;;2098056;28;20385;-43
2022/03/02 03:37:42;;;;;;;;;;;;;;;;;;2097791;28;19932;-43
2022/03/02 03:38:44;;;;;;;;;;;;;;;;;;2096311;28;19924;-43
2022/03/02 03:39:45;;;;;;;;;;;;;;;;;;2098009;28;20023;-48
2022/03/02 03:40:46;;;;;;;;;;;;;;;;;;2097435;28;20032;-47
2022/03/02 03:41:48;;;;;;;;;;;;;;;;;;2096484;28;19970;-47
2022/03/02 03:42:48;;;;;;;;;;;;;;;;;;2097406;28;19924;-47
2022/03/02 03:43:49;;;;;;;;;;;;;;;;;;2095418;28;20181;-47
2022/03/02 03:44:50;;;;;;;;;;;;;;;;;;2097789;28;19924;-48
2022/03/02 03:45:51;;;;;;;;;;;;;;;;;;2093528;28;19928;-47
2022/03/02 03:46:52;;;;;;;;;;;;;;;;;;2092373;28;19960;-43
2022/03/02 03:47:54;;;;;;;;;;;;;;;;;;2098460;28;19994;-43
2022/03/02 03:48:54;;;;;;;;;;;;;;;;;;2098475;28;19924;-43
2022/03/02 03:49:55;;;;;;;;;;;;;;;;;;2093987;28;19929;-43
2022/03/02 03:50:56;;;;;;;;;;;;;;;;;;2097952;28;20396;-43
2022/03/02 03:51:57;;;;;;;;;;;;;;;;;;2094599;28;19929;-47
2022/03/02 03:52:58;;;;;;;;;;;;;;;;;;2094940;28;20472;-43
2022/03/02 03:53:59;;;;;;;;;;;;;;;;;;2097797;28;19947;-43
2022/03/02 03:55:00;;;;;;;;;;;;;;;;;;2098094;28;20366;-48
2022/03/02 03:56:01;;;;;;;;;;;;;;;;;;2095362;28;19931;-47
2022/03/02 03:57:01;;;;;;;;;;;;;;;;;;2098309;28;20007;-42
2022/03/02 03:58:02;;;;;;;;;;;;;;;;;;2097460;28;19947;-46
2022/03/02 03:59:03;;;;;;;;;;;;;;;;;;2095901;28;19967;-48
2022/03/02 04:00:04;;;;;;;;;;;;;;;;;;2098119;28;19967;-48
2022/03/02 04:01:06;;;;;;;;;;;;;;;;;;2096180;28;19959;-48
2022/03/02 04:02:07;;;;;;;;;;;;;;;;;;2098067;28;19932;-47
2022/03/02 04:03:08;;;;;;;;;;;;;;;;;;2098208;28;19924;-43
2022/03/02 04:04:09;;;;;;;;;;;;;;;;;;2096563;28;19947;-48
2022/03/02 04:05:10;;;;;;;;;;;;;;;;;;2098076;28;19934;-43
2022/03/02 04:06:12;;;;;;;;;;;;;;;;;;2098069;28;20011;-43
2022/03/02 04:07:13;;;;;;;;;;;;;;;;;;2095912;28;19931;-47
2022/03/02 04:08:15;;;;;;;;;;;;;;;;;;2098761;28;19932;-47
2022/03/02 04:09:15;;;;;;;;;;;;;;;;;;2093104;28;19932;-43
2022/03/02 04:10:17;;;;;;;;;;;;;;;;;;2093624;28;19929;-48
2022/03/02 04:11:19;;;;;;;;;;;;;;;;;;2090874;28;19948;-43
2022/03/02 04:12:20;;;;;;;;;;;;;;;;;;2091568;28;19925;-43
2022/03/02 04:13:21;;;;;;;;;;;;;;;;;;2096991;28;19924;-43
2022/03/02 04:14:22;;;;;;;;;;;;;;;;;;2097993;28;19960;-43
2022/03/02 04:15:22;;;;;;;;;;;;;;;;;;2096449;28;19939;-43
2022/03/02 04:16:24;;;;;;;;;;;;;;;;;;2089770;28;20321;-47
2022/03/02 04:17:25;;;;;;;;;;;;;;;;;;2089662;28;19929;-47
2022/03/02 04:18:27;;;;;;;;;;;;;;;;;;2094029;28;19928;-48
2022/03/02 04:19:28;;;;;;;;;;;;;;;;;;2098008;28;19924;-48
2022/03/02 04:20:28;;;;;;;;;;;;;;;;;;2097129;28;19954;-50
2022/03/02 04:21:29;;;;;;;;;;;;;;;;;;2095414;28;19925;-48
2022/03/02 04:22:30;;;;;;;;;;;;;;;;;;2097874;28;19966;-48
2022/03/02 04:23:31;;;;;;;;;;;;;;;;;;2095770;28;19924;-48
2022/03/02 04:24:32;;;;;;;;;;;;;;;;;;2097904;28;19955;-47
2022/03/02 04:25:33;;;;;;;;;;;;;;;;;;2097919;28;19940;-49
2022/03/02 04:26:34;;;;;;;;;;;;;;;;;;2095369;28;19933;-47
2022/03/02 04:27:35;;;;;;;;;;;;;;;;;;2098048;28;19956;-47
2022/03/02 04:28:36;;;;;;;;;;;;;;;;;;2098066;28;19928;-49
2022/03/02 04:29:37;;;;;;;;;;;;;;;;;;2095686;28;19987;-50
2022/03/02 04:30:38;;;;;;;;;;;;;;;;;;2097780;28;19956;-48
2022/03/02 04:31:38;;;;;;;;;;;;;;;;;;2094892;28;20397;-48
2022/03/02 04:32:40;;;;;;;;;;;;;;;;;;2094909;28;20325;-47
2022/03/02 04:33:41;;;;;;;;;;;;;;;;;;2092412;28;19960;-47
2022/03/02 04:34:42;;;;;;;;;;;;;;;;;;2090338;28;20032;-48
2022/03/02 04:35:43;;;;;;;;;;;;;;;;;;2096080;28;20293;-43
2022/03/02 04:36:44;;;;;;;;;;;;;;;;;;2097874;28;20296;-43
2022/03/02 04:37:45;;;;;;;;;;;;;;;;;;2096680;28;20480;-43
2022/03/02 04:38:45;;;;;;;;;;;;;;;;;;2096743;28;20046;-43
2022/03/02 04:39:46;;;;;;;;;;;;;;;;;;2097923;28;20289;-43
2022/03/02 04:40:47;;;;;;;;;;;;;;;;;;2094546;28;19931;-43
2022/03/02 04:41:48;;;;;;;;;;;;;;;;;;2096457;28;19924;-43
2022/03/02 04:42:50;;;;;;;;;;;;;;;;;;2098126;28;19925;-43
2022/03/02 04:43:50;;;;;;;;;;;;;;;;;;2095806;28;19974;-47
2022/03/02 04:44:51;;;;;;;;;;;;;;;;;;2097878;28;19986;-47
2022/03/02 04:45:52;;;;;;;;;;;;;;;;;;2097343;28;20015;-43
2022/03/02 04:46:54;;;;;;;;;;;;;;;;;;2093858;28;19928;-43
2022/03/02 04:47:55;;;;;;;;;;;;;;;;;;2097675;28;20024;-43
2022/03/02 04:48:56;;;;;;;;;;;;;;;;;;2097710;28;19931;-43
2022/03/02 04:49:57;;;;;;;;;;;;;;;;;;2093104;28;20420;-43
2022/03/02 04:50:58;;;;;;;;;;;;;;;;;;2097458;28;19925;-42
2022/03/02 04:51:58;;;;;;;;;;;;;;;;;;2097310;28;20037;-43
2022/03/02 04:52:59;;;;;;;;;;;;;;;;;;2095832;28;19924;-43
2022/03/02 04:54:00;;;;;;;;;;;;;;;;;;2097705;28;20028;-43
2022/03/02 04:55:07;;;;;;;;;;;;;;;;;;2096184;28;19971;-43
2022/03/02 04:56:08;;;;;;;;;;;;;;;;;;2095982;28;19933;-43
2022/03/02 04:57:09;;;;;;;;;;;;;;;;;;2097816;28;20404;-48
2022/03/02 04:58:11;;;;;;;;;;;;;;;;;;2095616;28;19924;-48
2022/03/02 04:59:12;;;;;;;;;;;;;;;;;;2089437;28;19925;-46
2022/03/02 05:00:13;;;;;;;;;;;;;;;;;;2089549;28;19963;-47
2022/03/02 05:01:14;;;;;;;;;;;;;;;;;;2094553;28;19925;-43
2022/03/02 05:02:15;;;;;;;;;;;;;;;;;;2096285;28;20461;-42
2022/03/02 05:03:17;;;;;;;;;;;;;;;;;;2090009;28;19928;-43
2022/03/02 05:04:18;;;;;;;;;;;;;;;;;;2095707;28;19925;-43
2022/03/02 05:05:19;;;;;;;;;;;;;;;;;;2097777;28;19931;-43
2022/03/02 05:06:20;;;;;;;;;;;;;;;;;;2096498;28;20409;-43
2022/03/02 05:07:21;;;;;;;;;;;;;;;;;;2096717;28;19932;-43
2022/03/02 05:08:22;;;;;;;;;;;;;;;;;;2097714;28;19924;-43
2022/03/02 05:09:22;;;;;;;;;;;;;;;;;;2096900;28;19993;-47
2022/03/02 05:10:23;;;;;;;;;;;;;;;;;;2089294;28;19932;-47
2022/03/02 05:11:24;;;;;;;;;;;;;;;;;;2089464;28;20055;-49
2022/03/02 05:12:25;;;;;;;;;;;;;;;;;;2091910;28;19924;-47
2022/03/02 05:13:26;;;;;;;;;;;;;;;;;;2097486;28;19963;-47
2022/03/02 05:14:27;;;;;;;;;;;;;;;;;;2097355;28;19933;-48
2022/03/02 05:15:28;;;;;;;;;;;;;;;;;;2095853;28;19997;-47
2022/03/02 05:16:29;;;;;;;;;;;;;;;;;;2096260;28;20294;-47
2022/03/02 05:17:30;;;;;;;;;;;;;;;;;;2098026;28;20293;-48
2022/03/02 05:18:30;;;;;;;;;;;;;;;;;;2096981;28;19928;-48
2022/03/02 05:19:33;;;;;;;;;;;;;;;;;;2099238;28;19970;-48
2022/03/02 05:20:34;;;;;;;;;;;;;;;;;;2095465;28;20046;-48
2022/03/02 05:21:35;;;;;;;;;;;;;;;;;;2098763;28;20471;-47
2022/03/02 05:22:36;;;;;;;;;;;;;;;;;;2098997;28;19925;-47
2022/03/02 05:23:37;;;;;;;;;;;;;;;;;;2096845;28;19936;-47
2022/03/02 05:24:37;;;;;;;;;;;;;;;;;;2099004;28;19928;-48
2022/03/02 05:25:38;;;;;;;;;;;;;;;;;;2098813;28;19933;-48
2022/03/02 05:26:39;;;;;;;;;;;;;;;;;;2095064;28;20025;-47
2022/03/02 05:27:41;;;;;;;;;;;;;;;;;;2099035;28;19978;-47
2022/03/02 05:28:42;;;;;;;;;;;;;;;;;;2092562;28;20015;-48
2022/03/02 05:29:43;;;;;;;;;;;;;;;;;;2096599;28;20035;-48
2022/03/02 05:30:44;;;;;;;;;;;;;;;;;;2099173;28;20234;-48
2022/03/02 05:31:45;;;;;;;;;;;;;;;;;;2095481;28;20474;-47
2022/03/02 05:32:46;;;;;;;;;;;;;;;;;;2091050;28;19924;-48
2022/03/02 05:33:47;;;;;;;;;;;;;;;;;;2090593;28;19929;-48
2022/03/02 05:34:48;;;;;;;;;;;;;;;;;;2094789;28;19931;-43
2022/03/02 05:35:49;;;;;;;;;;;;;;;;;;2097987;28;19932;-43
2022/03/02 05:36:50;;;;;;;;;;;;;;;;;;2098888;28;19931;-43
2022/03/02 05:37:51;;;;;;;;;;;;;;;;;;2096746;28;20362;-43
2022/03/02 05:38:52;;;;;;;;;;;;;;;;;;2098888;28;19995;-43
2022/03/02 05:39:53;;;;;;;;;;;;;;;;;;2098473;28;19925;-43
2022/03/02 05:40:54;;;;;;;;;;;;;;;;;;2095892;28;20053;-43
2022/03/02 05:41:55;;;;;;;;;;;;;;;;;;2099258;28;19928;-48
2022/03/02 05:42:57;;;;;;;;;;;;;;;;;;2098321;28;19966;-48
2022/03/02 05:43:58;;;;;;;;;;;;;;;;;;2097309;28;19991;-48
2022/03/02 05:44:59;;;;;;;;;;;;;;;;;;2098806;28;19931;-48
2022/03/02 05:46:00;;;;;;;;;;;;;;;;;;2097371;28;19964;-47
2022/03/02 05:47:01;;;;;;;;;;;;;;;;;;2091552;28;19925;-48
2022/03/02 05:48:02;;;;;;;;;;;;;;;;;;2094655;28;20361;-47
2022/03/02 05:49:02;;;;;;;;;;;;;;;;;;2093750;28;19970;-49
2022/03/02 05:50:04;;;;;;;;;;;;;;;;;;2096029;28;19924;-49
2022/03/02 05:51:05;;;;;;;;;;;;;;;;;;2092716;28;20724;-48
2022/03/02 05:52:06;;;;;;;;;;;;;;;;;;2094720;28;19956;-47
2022/03/02 05:53:07;;;;;;;;;;;;;;;;;;2098457;28;19935;-47
2022/03/02 05:54:08;;;;;;;;;;;;;;;;;;2098888;28;20012;-48
2022/03/02 05:55:09;;;;;;;;;;;;;;;;;;2095553;28;20365;-47
2022/03/02 05:56:10;;;;;;;;;;;;;;;;;;2098512;28;19931;-47
2022/03/02 05:57:11;;;;;;;;;;;;;;;;;;2091450;28;20297;-47
2022/03/02 05:58:13;;;;;;;;;;;;;;;;;;2097125;28;19931;-43
2022/03/02 05:59:14;;;;;;;;;;;;;;;;;;2098881;28;19925;-48
2022/03/02 06:00:14;;;;;;;;;;;;;;;;;;2098362;28;19924;-43
2022/03/02 06:01:15;;;;;;;;;;;;;;;;;;2097344;28;19946;-43
2022/03/02 06:02:16;;;;;;;;;;;;;;;;;;2098938;28;19947;-47
2022/03/02 06:03:17;;;;;;;;;;;;;;;;;;2097841;28;20429;-48
2022/03/02 06:04:18;;;;;;;;;;;;;;;;;;2097558;28;19924;-51
2022/03/02 06:05:19;;;;;;;;;;;;;;;;;;2098385;28;20019;-43
2022/03/02 06:06:20;;;;;;;;;;;;;;;;;;2096694;28;19967;-47
2022/03/02 06:07:21;;;;;;;;;;;;;;;;;;2096876;28;20015;-47
2022/03/02 06:08:23;;;;;;;;;;;;;;;;;;2093078;28;20366;-47
2022/03/02 06:09:24;;;;;;;;;;;;;;;;;;2095269;28;19947;-48
2022/03/02 06:10:25;;;;;;;;;;;;;;;;;;2093819;28;19932;-43
2022/03/02 06:11:26;;;;;;;;;;;;;;;;;;2092444;28;19929;-47
2022/03/02 06:12:28;;;;;;;;;;;;;;;;;;2094433;28;19932;-43
2022/03/02 06:13:30;;;;;;;;;;;;;;;;;;2090115;28;20449;-43
2022/03/02 06:14:31;;;;;;;;;;;;;;;;;;2096278;28;19963;-47
2022/03/02 06:15:33;;;;;;;;;;;;;;;;;;2092902;28;19931;-43
2022/03/02 06:16:34;;;;;;;;;;;;;;;;;;2096948;28;19931;-43
2022/03/02 06:17:35;;;;;;;;;;;;;;;;;;2096389;28;19930;-43
2022/03/02 06:18:36;;;;;;;;;;;;;;;;;;2098865;28;19970;-48
2022/03/02 06:19:37;;;;;;;;;;;;;;;;;;2097801;28;19928;-47
2022/03/02 06:20:37;;;;;;;;;;;;;;;;;;2095515;28;20017;-43
2022/03/02 06:21:40;;;;;;;;;;;;;;;;;;2094975;28;19970;-43
2022/03/02 06:22:41;;;;;;;;;;;;;;;;;;2097403;28;19932;-43
2022/03/02 06:23:42;;;;;;;;;;;;;;;;;;2096856;28;20298;-43
2022/03/02 06:24:42;;;;;;;;;;;;;;;;;;2098068;28;20024;-43
2022/03/02 06:25:43;;;;;;;;;;;;;;;;;;2091879;28;19933;-43
2022/03/02 06:26:44;;;;;;;;;;;;;;;;;;2094306;28;20355;-44
2022/03/02 06:27:46;;;;;;;;;;;;;;;;;;2098284;28;19928;-43
2022/03/02 06:28:47;;;;;;;;;;;;;;;;;;2094987;28;20024;-43
2022/03/02 06:29:48;;;;;;;;;;;;;;;;;;2098523;28;20018;-43
2022/03/02 06:30:48;;;;;;;;;;;;;;;;;;2093611;28;20393;-47
2022/03/02 06:31:50;;;;;;;;;;;;;;;;;;2095180;28;19978;-43
2022/03/02 06:32:52;;;;;;;;;;;;;;;;;;2102676;28;20335;-48
2022/03/02 06:33:53;;;;;;;;;;;;;;;;;;2098066;28;20420;-47
2022/03/02 06:34:54;;;;;;;;;;;;;;;;;;2097200;28;19932;-48
2022/03/02 06:35:55;;;;;;;;;;;;;;;;;;2094441;28;19925;-49
2022/03/02 06:36:56;;;;;;;;;;;;;;;;;;2097638;28;19925;-49
2022/03/02 06:37:58;;;;;;;;;;;;;;;;;;2097409;28;19929;-43
2022/03/02 06:38:59;;;;;;;;;;;;;;;;;;2098666;28;19925;-50
2022/03/02 06:40:00;;;;;;;;;;;;;;;;;;2097723;28;19924;-47
2022/03/02 06:41:01;;;;;;;;;;;;;;;;;;2092409;28;20005;-47
2022/03/02 06:42:02;;;;;;;;;;;;;;;;;;2098683;28;19928;-47
2022/03/02 06:43:03;;;;;;;;;;;;;;;;;;2095053;28;19925;-43
2022/03/02 06:44:04;;;;;;;;;;;;;;;;;;2098940;28;20008;-48
2022/03/02 06:45:05;;;;;;;;;;;;;;;;;;2102438;28;19924;-48
2022/03/02 06:46:06;;;;;;;;;;;;;;;;;;2094651;28;19931;-48
2022/03/02 06:47:09;;;;;;;;;;;;;;;;;;2093091;28;20011;-43
2022/03/02 06:48:10;;;;;;;;;;;;;;;;;;2097850;28;19924;-49
2022/03/02 06:49:12;;;;;;;;;;;;;;;;;;2096399;28;20026;-49
2022/03/02 06:50:12;;;;;;;;;;;;;;;;;;2094688;28;19967;-50
2022/03/02 06:51:13;;;;;;;;;;;;;;;;;;2091683;28;19932;-47
2022/03/02 06:52:14;;;;;;;;;;;;;;;;;;2096909;28;19932;-47
2022/03/02 06:53:15;;;;;;;;;;;;;;;;;;2093967;28;19924;-49
2022/03/02 06:54:18;;;;;;;;;;;;;;;;;;2094493;28;20591;-49
2022/03/02 06:55:19;;;;;;;;;;;;;;;;;;2093682;28;20020;-47
2022/03/02 06:56:20;;;;;;;;;;;;;;;;;;2092862;28;19925;-47
2022/03/02 06:57:21;;;;;;;;;;;;;;;;;;2092818;28;19933;-48